createdAt,value
2022-12-31T00:01:46.541Z,14.04
2022-12-31T00:04:16.392Z,14.04
2022-12-31T00:06:44.320Z,14.09
2022-12-31T00:09:12.102Z,14.10
2022-12-31T00:11:41.307Z,14.12
2022-12-31T00:14:09.109Z,14.12
2022-12-31T00:16:38.763Z,14.09
2022-12-31T00:19:09.557Z,14.11
2022-12-31T00:21:38.545Z,14.05
2022-12-31T00:24:07.863Z,14.00
2022-12-31T00:26:36.720Z,13.95
2022-12-31T00:29:06.638Z,13.91
2022-12-31T00:31:36.544Z,13.91
2022-12-31T00:34:05.178Z,13.92
2022-12-31T00:36:34.692Z,13.90
2022-12-31T00:39:03.797Z,13.88
2022-12-31T00:41:32.460Z,13.84
2022-12-31T00:44:00.423Z,13.87
2022-12-31T00:46:29.831Z,13.88
2022-12-31T00:48:57.612Z,13.91
2022-12-31T00:51:28.447Z,13.91
2022-12-31T00:53:58.467Z,13.89
2022-12-31T00:56:29.087Z,13.88
2022-12-31T00:58:57.502Z,13.86
2022-12-31T01:01:26.956Z,13.92
2022-12-31T01:03:59.712Z,13.92
2022-12-31T01:06:27.501Z,13.95
2022-12-31T01:08:56.220Z,13.96
2022-12-31T01:11:29.641Z,13.94
2022-12-31T01:13:59.857Z,13.92
2022-12-31T01:16:29.565Z,13.92
2022-12-31T01:18:59.957Z,13.91
2022-12-31T01:21:28.162Z,13.94
2022-12-31T01:23:56.010Z,14.00
2022-12-31T01:26:23.738Z,14.04
2022-12-31T01:28:51.972Z,14.10
2022-12-31T01:31:27.457Z,14.11
2022-12-31T01:33:55.750Z,14.12
2022-12-31T01:36:27.249Z,14.15
2022-12-31T01:38:56.893Z,14.19
2022-12-31T01:41:27.086Z,14.24
2022-12-31T01:43:57.048Z,14.28
2022-12-31T01:46:37.364Z,14.28
2022-12-31T01:49:15.168Z,14.32
2022-12-31T01:51:46.536Z,14.43
2022-12-31T01:54:17.720Z,14.43
2022-12-31T01:56:48.989Z,14.47
2022-12-31T01:59:19.462Z,14.48
2022-12-31T02:01:48.833Z,14.56
2022-12-31T02:04:17.523Z,14.57
2022-12-31T02:06:51.799Z,14.65
2022-12-31T02:09:19.601Z,14.68
2022-12-31T02:11:47.388Z,14.70
2022-12-31T02:14:17.464Z,14.75
2022-12-31T02:16:53.950Z,14.82
2022-12-31T02:19:49.386Z,14.96
2022-12-31T02:22:31.756Z,14.95
2022-12-31T02:25:21.391Z,14.97
2022-12-31T02:27:59.088Z,15.01
2022-12-31T02:30:32.715Z,15.00
2022-12-31T02:33:14.809Z,15.02
2022-12-31T02:35:48.690Z,15.16
2022-12-31T02:38:21.877Z,15.14
2022-12-31T02:40:51.200Z,15.21
2022-12-31T02:43:18.904Z,15.22
2022-12-31T02:45:52.176Z,15.24
2022-12-31T02:48:34.283Z,15.26
2022-12-31T02:51:14.791Z,15.31
2022-12-31T02:54:15.890Z,15.28
2022-12-31T02:56:52.385Z,15.31
2022-12-31T02:59:43.118Z,15.34
2022-12-31T03:02:16.843Z,15.32
2022-12-31T03:04:48.572Z,15.28
2022-12-31T03:07:20.571Z,15.23
2022-12-31T03:09:48.420Z,15.19
2022-12-31T03:12:34.793Z,15.24
2022-12-31T03:15:06.531Z,15.17
2022-12-31T03:17:35.822Z,15.12
2022-12-31T03:20:21.255Z,15.09
2022-12-31T03:22:48.996Z,15.05
2022-12-31T03:25:33.295Z,15.00
2022-12-31T03:28:01.886Z,14.98
2022-12-31T03:30:30.319Z,14.96
2022-12-31T03:32:59.938Z,14.95
2022-12-31T03:35:29.547Z,14.87
2022-12-31T03:37:57.699Z,14.91
2022-12-31T03:40:27.422Z,14.91
2022-12-31T03:42:55.467Z,14.84
2022-12-31T03:45:23.286Z,14.81
2022-12-31T03:47:51.241Z,14.79
2022-12-31T03:50:21.272Z,14.74
2022-12-31T03:52:48.992Z,14.71
2022-12-31T03:55:16.642Z,14.60
2022-12-31T03:57:44.461Z,14.56
2022-12-31T04:00:15.289Z,14.52
2022-12-31T04:02:43.462Z,14.49
2022-12-31T04:05:11.235Z,14.47
2022-12-31T04:07:40.616Z,14.47
2022-12-31T04:10:10.301Z,14.49
2022-12-31T04:12:38.409Z,14.48
2022-12-31T04:15:08.340Z,14.43
2022-12-31T04:17:36.111Z,14.46
2022-12-31T04:20:04.074Z,14.49
2022-12-31T04:22:31.821Z,14.53
2022-12-31T04:25:00.867Z,14.55
2022-12-31T04:27:28.533Z,14.62
2022-12-31T04:29:56.237Z,14.67
2022-12-31T04:32:23.928Z,14.71
2022-12-31T04:34:51.540Z,14.70
2022-12-31T04:37:19.215Z,14.80
2022-12-31T04:39:46.857Z,14.86
2022-12-31T04:42:15.898Z,14.88
2022-12-31T04:44:43.574Z,14.89
2022-12-31T04:47:11.252Z,14.94
2022-12-31T04:49:38.985Z,14.96
2022-12-31T04:52:06.804Z,15.07
2022-12-31T04:54:34.427Z,15.05
2022-12-31T04:57:02.375Z,15.08
2022-12-31T04:59:31.409Z,15.15
2022-12-31T05:01:59.275Z,15.16
2022-12-31T05:04:27.175Z,15.30
2022-12-31T05:06:54.855Z,15.44
2022-12-31T05:09:24.126Z,15.33
2022-12-31T05:11:51.904Z,15.33
2022-12-31T05:14:20.032Z,15.44
2022-12-31T05:16:49.139Z,15.43
2022-12-31T05:19:17.061Z,15.54
2022-12-31T05:22:04.808Z,15.56
2022-12-31T05:24:32.678Z,15.60
2022-12-31T05:27:00.340Z,15.60
2022-12-31T05:29:28.060Z,15.70
2022-12-31T05:31:57.210Z,15.70
2022-12-31T05:34:24.894Z,15.68
2022-12-31T05:36:52.588Z,15.82
2022-12-31T05:39:20.418Z,15.79
2022-12-31T05:41:48.060Z,15.88
2022-12-31T05:44:15.728Z,15.91
2022-12-31T05:46:43.384Z,15.87
2022-12-31T05:49:12.381Z,15.90
2022-12-31T05:51:40.065Z,15.96
2022-12-31T05:54:07.789Z,15.99
2022-12-31T05:56:35.520Z,16.01
2022-12-31T05:59:03.201Z,16.11
2022-12-31T06:01:30.967Z,16.12
2022-12-31T06:03:58.732Z,16.19
2022-12-31T06:06:27.859Z,16.18
2022-12-31T06:08:55.556Z,16.16
2022-12-31T06:11:23.271Z,16.13
2022-12-31T06:13:51.006Z,16.13
2022-12-31T06:16:18.808Z,16.09
2022-12-31T06:18:50.245Z,16.12
2022-12-31T06:21:18.313Z,16.18
2022-12-31T06:23:47.511Z,16.16
2022-12-31T06:26:15.719Z,16.19
2022-12-31T06:28:43.677Z,16.22
2022-12-31T06:31:15.146Z,16.23
2022-12-31T06:33:43.091Z,16.21
2022-12-31T06:36:15.323Z,16.18
2022-12-31T06:38:44.839Z,16.14
2022-12-31T06:41:15.743Z,16.21
2022-12-31T06:43:44.161Z,16.19
2022-12-31T06:46:14.023Z,16.22
2022-12-31T06:48:44.655Z,16.20
2022-12-31T06:51:17.220Z,16.24
2022-12-31T06:53:45.694Z,16.22
2022-12-31T06:56:18.905Z,16.27
2022-12-31T06:58:47.333Z,16.34
2022-12-31T07:01:30.681Z,16.46
2022-12-31T07:04:04.682Z,16.41
2022-12-31T07:06:40.194Z,16.49
2022-12-31T07:09:14.595Z,16.47
2022-12-31T07:11:51.733Z,16.53
2022-12-31T07:14:30.204Z,16.47
2022-12-31T07:17:12.080Z,16.48
2022-12-31T07:19:55.542Z,16.53
2022-12-31T07:22:25.785Z,16.58
2022-12-31T07:24:54.171Z,16.60
2022-12-31T07:27:49.831Z,16.58
2022-12-31T07:30:20.977Z,16.60
2022-12-31T07:33:12.310Z,16.67
2022-12-31T07:35:50.059Z,16.57
2022-12-31T07:38:31.541Z,16.56
2022-12-31T07:41:10.387Z,16.51
2022-12-31T07:43:50.401Z,16.52
2022-12-31T07:46:24.928Z,16.50
2022-12-31T07:48:53.355Z,16.52
2022-12-31T07:51:21.928Z,16.56
2022-12-31T07:53:49.883Z,16.68
2022-12-31T07:56:17.866Z,16.66
2022-12-31T07:59:00.812Z,16.64
2022-12-31T08:01:36.734Z,16.59
2022-12-31T08:04:10.697Z,16.52
2022-12-31T08:06:47.286Z,16.57
2022-12-31T08:09:26.844Z,16.62
2022-12-31T08:11:57.543Z,16.66
2022-12-31T08:14:28.313Z,16.69
2022-12-31T08:16:57.344Z,16.75
2022-12-31T08:19:27.039Z,16.76
2022-12-31T08:22:31.190Z,16.77
2022-12-31T08:25:08.721Z,16.80
2022-12-31T08:27:47.062Z,16.82
2022-12-31T08:30:17.933Z,16.87
2022-12-31T08:32:53.144Z,16.83
2022-12-31T08:35:34.144Z,16.98
2022-12-31T08:38:13.509Z,16.99
2022-12-31T08:40:51.883Z,16.95
2022-12-31T08:43:34.201Z,17.00
2022-12-31T08:46:05.313Z,16.97
2022-12-31T08:48:39.860Z,16.96
2022-12-31T08:51:13.841Z,17.01
2022-12-31T08:53:42.281Z,16.94
2022-12-31T08:56:21.065Z,16.98
2022-12-31T08:58:57.827Z,16.99
2022-12-31T09:01:31.196Z,16.98
2022-12-31T09:04:13.687Z,17.00
2022-12-31T09:06:48.227Z,16.97
2022-12-31T09:09:23.703Z,16.99
2022-12-31T09:12:00.205Z,16.94
2022-12-31T09:14:45.142Z,16.89
2022-12-31T09:17:30.081Z,16.91
2022-12-31T09:19:58.387Z,16.87
2022-12-31T09:22:26.921Z,16.86
2022-12-31T09:24:55.174Z,16.97
2022-12-31T09:27:39.150Z,17.04
2022-12-31T09:30:08.783Z,17.09
2022-12-31T09:32:47.923Z,17.11
2022-12-31T09:35:27.245Z,17.07
2022-12-31T09:38:00.493Z,17.11
2022-12-31T09:40:57.836Z,17.11
2022-12-31T09:44:17.241Z,17.13
2022-12-31T09:47:18.373Z,17.10
2022-12-31T09:50:30.619Z,17.11
2022-12-31T09:53:18.922Z,17.13
2022-12-31T09:55:49.837Z,17.11
2022-12-31T09:58:44.951Z,17.19
2022-12-31T10:01:30.679Z,17.19
2022-12-31T10:04:15.932Z,17.19
2022-12-31T10:06:57.353Z,17.24
2022-12-31T10:09:41.290Z,17.30
2022-12-31T10:12:37.226Z,17.29
2022-12-31T10:15:31.669Z,17.27
2022-12-31T10:18:08.930Z,17.27
2022-12-31T10:20:55.952Z,17.23
2022-12-31T10:23:49.905Z,17.23
2022-12-31T10:26:29.596Z,17.21
2022-12-31T10:29:09.402Z,17.25
2022-12-31T10:31:41.468Z,17.29
2022-12-31T10:34:16.308Z,17.30
2022-12-31T10:36:56.364Z,17.33
2022-12-31T10:39:49.341Z,17.45
2022-12-31T10:42:37.190Z,17.45
2022-12-31T10:45:57.347Z,17.53
2022-12-31T10:48:59.701Z,17.57
2022-12-31T10:52:02.633Z,17.55
2022-12-31T10:54:49.750Z,17.50
2022-12-31T10:57:42.766Z,17.49
2022-12-31T11:00:21.713Z,17.54
2022-12-31T11:03:29.347Z,17.67
2022-12-31T11:06:31.208Z,17.71
2022-12-31T11:09:36.269Z,17.74
2022-12-31T11:12:16.058Z,17.74
2022-12-31T11:15:03.663Z,17.77
2022-12-31T11:17:45.329Z,17.77
2022-12-31T11:20:31.063Z,17.78
2022-12-31T11:23:10.737Z,17.83
2022-12-31T11:25:56.021Z,17.77
2022-12-31T11:28:54.097Z,17.79
2022-12-31T11:31:40.270Z,17.73
2022-12-31T11:34:21.348Z,17.72
2022-12-31T11:37:05.886Z,17.68
2022-12-31T11:39:50.281Z,17.69
2022-12-31T11:42:23.093Z,17.66
2022-12-31T11:44:58.867Z,17.74
2022-12-31T11:48:04.285Z,17.73
2022-12-31T11:50:43.977Z,17.69
2022-12-31T11:53:26.580Z,17.70
2022-12-31T11:56:00.270Z,17.74
2022-12-31T11:58:30.235Z,17.71
2022-12-31T12:01:05.948Z,17.67
2022-12-31T12:03:34.150Z,17.61
2022-12-31T12:06:02.193Z,17.59
2022-12-31T12:08:33.782Z,17.64
2022-12-31T12:11:08.867Z,17.69
2022-12-31T12:13:39.190Z,17.60
2022-12-31T12:16:09.480Z,17.61
2022-12-31T12:18:43.389Z,17.57
2022-12-31T12:21:13.859Z,17.60
2022-12-31T12:23:43.667Z,17.62
2022-12-31T12:26:35.725Z,17.64
2022-12-31T12:29:11.962Z,17.58
2022-12-31T12:31:44.406Z,17.60
2022-12-31T12:34:25.565Z,17.49
2022-12-31T12:36:54.064Z,17.37
2022-12-31T12:39:25.290Z,17.33
2022-12-31T12:42:05.495Z,17.21
2022-12-31T12:44:35.955Z,17.26
2022-12-31T12:47:08.628Z,17.26
2022-12-31T12:49:41.688Z,17.26
2022-12-31T12:52:27.395Z,17.21
2022-12-31T12:55:10.789Z,17.14
2022-12-31T12:57:46.588Z,17.14
2022-12-31T13:00:19.550Z,17.14
2022-12-31T13:03:13.170Z,17.15
2022-12-31T13:05:53.519Z,17.18
2022-12-31T13:08:37.698Z,17.24
2022-12-31T13:11:25.979Z,17.23
2022-12-31T13:14:06.254Z,17.24
2022-12-31T13:16:41.787Z,17.24
2022-12-31T13:19:17.775Z,17.22
2022-12-31T13:21:52.298Z,17.18
2022-12-31T13:24:34.290Z,17.17
2022-12-31T13:27:08.815Z,17.25
2022-12-31T13:29:40.508Z,17.24
2022-12-31T13:32:10.998Z,17.28
2022-12-31T13:34:47.292Z,17.32
2022-12-31T13:37:27.864Z,17.35
2022-12-31T13:40:05.689Z,17.32
2022-12-31T13:42:42.606Z,17.38
2022-12-31T13:45:15.893Z,17.37
2022-12-31T13:47:53.752Z,17.34
2022-12-31T13:50:27.976Z,17.27
2022-12-31T13:52:59.894Z,17.24
2022-12-31T13:55:33.276Z,17.18
2022-12-31T13:58:07.771Z,17.15
2022-12-31T14:00:42.128Z,17.01
2022-12-31T14:03:18.884Z,17.03
2022-12-31T14:05:59.752Z,16.99
2022-12-31T14:08:28.002Z,16.97
2022-12-31T14:11:05.672Z,16.97
2022-12-31T14:13:46.460Z,16.96
2022-12-31T14:16:25.302Z,17.02
2022-12-31T14:19:02.221Z,17.04
2022-12-31T14:21:40.103Z,17.05
2022-12-31T14:24:14.680Z,17.04
2022-12-31T14:26:46.646Z,17.06
2022-12-31T14:29:30.602Z,17.14
2022-12-31T14:32:24.006Z,17.13
2022-12-31T14:35:03.223Z,17.16
2022-12-31T14:37:41.602Z,17.13
2022-12-31T14:40:20.311Z,17.16
2022-12-31T14:42:58.076Z,17.14
2022-12-31T14:45:36.915Z,17.08
2022-12-31T14:48:21.936Z,17.04
2022-12-31T14:50:50.721Z,17.07
2022-12-31T14:53:24.940Z,17.03
2022-12-31T14:56:02.204Z,16.99
2022-12-31T14:58:35.456Z,17.08
2022-12-31T15:01:09.075Z,17.03
2022-12-31T15:03:45.106Z,17.02
2022-12-31T15:06:38.781Z,16.99
2022-12-31T15:09:12.829Z,16.97
2022-12-31T15:11:59.781Z,16.94
2022-12-31T15:14:45.155Z,16.91
2022-12-31T15:17:27.470Z,16.91
2022-12-31T15:20:50.076Z,16.89
2022-12-31T15:23:23.744Z,16.80
2022-12-31T15:25:58.743Z,16.75
2022-12-31T15:28:36.340Z,16.72
2022-12-31T15:31:14.414Z,16.71
2022-12-31T15:33:58.276Z,16.72
2022-12-31T15:36:28.475Z,16.66
2022-12-31T15:39:25.992Z,16.58
2022-12-31T15:44:52.011Z,16.56
2022-12-31T15:47:27.136Z,16.50
2022-12-31T15:49:55.714Z,16.48
2022-12-31T15:52:28.408Z,16.52
2022-12-31T15:54:58.937Z,16.49
2022-12-31T15:57:33.615Z,16.43
2022-12-31T16:00:07.255Z,16.42
2022-12-31T16:02:36.446Z,16.39
2022-12-31T16:05:04.962Z,16.41
2022-12-31T16:07:33.809Z,16.34
2022-12-31T16:10:04.516Z,16.37
2022-12-31T16:12:44.634Z,16.33
2022-12-31T16:15:25.006Z,16.34
2022-12-31T16:18:07.481Z,16.34
2022-12-31T16:20:42.204Z,16.37
2022-12-31T16:23:20.647Z,16.38
2022-12-31T16:25:48.784Z,16.40
2022-12-31T16:28:21.324Z,16.40
2022-12-31T16:31:00.359Z,16.39
2022-12-31T16:33:28.725Z,16.44
2022-12-31T16:35:58.254Z,16.43
2022-12-31T16:38:33.004Z,16.56
2022-12-31T16:41:09.874Z,16.63
2022-12-31T16:43:40.915Z,16.64
2022-12-31T16:46:15.408Z,16.61
2022-12-31T16:48:46.996Z,16.59
2022-12-31T16:51:19.771Z,16.61
2022-12-31T16:53:48.724Z,16.64
2022-12-31T16:56:26.106Z,16.65
2022-12-31T16:59:01.445Z,16.61
2022-12-31T17:01:33.452Z,16.58
2022-12-31T17:04:04.997Z,16.54
2022-12-31T17:06:33.863Z,16.51
2022-12-31T17:09:15.590Z,16.53
2022-12-31T17:11:45.494Z,16.53
2022-12-31T17:14:17.183Z,16.59
2022-12-31T17:17:02.680Z,16.66
2022-12-31T17:19:42.950Z,16.65
2022-12-31T17:22:18.056Z,16.61
2022-12-31T17:24:49.688Z,16.60
2022-12-31T17:27:17.872Z,16.56
2022-12-31T17:29:48.291Z,16.50
2022-12-31T17:32:32.021Z,16.52
2022-12-31T17:35:00.091Z,16.51
2022-12-31T17:37:29.409Z,16.49
2022-12-31T17:40:24.489Z,16.50
2022-12-31T17:42:49.159Z,16.43
2022-12-31T17:45:22.020Z,16.40
2022-12-31T17:47:53.850Z,16.39
2022-12-31T17:50:24.975Z,16.42
2022-12-31T17:52:57.244Z,16.41
2022-12-31T17:55:24.958Z,16.40
2022-12-31T17:57:54.971Z,16.38
2022-12-31T18:00:27.231Z,16.38
2022-12-31T18:02:55.238Z,16.38
2022-12-31T18:05:25.220Z,16.37
2022-12-31T18:07:53.406Z,16.36
2022-12-31T18:10:23.668Z,16.37
2022-12-31T18:12:51.836Z,16.38
2022-12-31T18:15:21.819Z,16.42
2022-12-31T18:17:51.520Z,16.39
2022-12-31T18:20:19.598Z,16.36
2022-12-31T18:22:47.534Z,16.40
2022-12-31T18:25:19.067Z,16.37
2022-12-31T18:27:46.960Z,16.31
2022-12-31T18:30:16.519Z,16.23
2022-12-31T18:32:45.676Z,16.25
2022-12-31T18:35:48.672Z,16.26
2022-12-31T18:38:04.686Z,16.27
2022-12-31T18:40:33.979Z,16.30
2022-12-31T18:43:05.096Z,16.28
2022-12-31T18:45:33.118Z,16.20
2022-12-31T18:48:00.846Z,16.22
2022-12-31T18:50:30.043Z,16.20
2022-12-31T18:52:57.911Z,16.14
2022-12-31T18:55:28.106Z,16.19
2022-12-31T18:57:55.819Z,16.20
2022-12-31T19:00:26.522Z,16.18
2022-12-31T19:02:54.270Z,16.20
2022-12-31T19:05:26.538Z,16.17
2022-12-31T19:07:56.407Z,16.15
2022-12-31T19:10:26.147Z,16.19
2022-12-31T19:12:54.401Z,16.21
2022-12-31T19:15:29.552Z,16.21
2022-12-31T19:17:57.727Z,16.19
2022-12-31T19:20:25.698Z,16.30
2022-12-31T19:22:54.837Z,16.24
2022-12-31T19:25:25.744Z,16.19
2022-12-31T19:27:53.823Z,16.14
2022-12-31T19:30:24.750Z,16.08
2022-12-31T19:32:53.479Z,16.11
2022-12-31T19:35:22.063Z,16.09
2022-12-31T19:37:52.855Z,16.02
2022-12-31T19:40:24.001Z,15.99
2022-12-31T19:42:53.366Z,15.94
2022-12-31T19:45:22.803Z,16.00
2022-12-31T19:47:50.627Z,15.99
2022-12-31T19:50:21.429Z,16.00
2022-12-31T19:52:50.821Z,16.01
2022-12-31T19:55:21.497Z,15.98
2022-12-31T19:57:49.932Z,15.95
2022-12-31T20:00:19.308Z,15.97
2022-12-31T20:02:49.227Z,15.99
2022-12-31T20:05:19.498Z,16.03
2022-12-31T20:07:47.405Z,16.05
2022-12-31T20:10:15.655Z,16.07
2022-12-31T20:12:44.997Z,16.07
2022-12-31T20:15:12.795Z,16.09
2022-12-31T20:17:40.524Z,16.11
2022-12-31T20:20:09.259Z,16.11
2022-12-31T20:22:37.246Z,16.13
2022-12-31T20:25:10.751Z,16.15
2022-12-31T20:27:38.502Z,16.25
2022-12-31T20:30:10.163Z,16.23
2022-12-31T20:32:37.927Z,16.18
2022-12-31T20:35:07.824Z,16.14
2022-12-31T20:37:35.581Z,16.18
2022-12-31T20:40:04.327Z,16.15
2022-12-31T20:42:32.143Z,16.15
2022-12-31T20:44:59.876Z,16.20
2022-12-31T20:47:28.943Z,16.31
2022-12-31T20:50:12.682Z,16.37
2022-12-31T20:52:40.913Z,16.38
2022-12-31T20:55:09.899Z,16.39
2022-12-31T20:57:37.680Z,16.31
2022-12-31T21:00:06.877Z,16.37
2022-12-31T21:02:42.290Z,16.47
2022-12-31T21:05:11.326Z,16.46
2022-12-31T21:07:39.208Z,16.46
2022-12-31T21:10:07.763Z,16.44
2022-12-31T21:12:52.202Z,16.46
2022-12-31T21:15:21.786Z,16.53
2022-12-31T21:17:50.826Z,16.50
2022-12-31T21:20:19.121Z,16.48
2022-12-31T21:22:47.095Z,16.49
2022-12-31T21:25:14.830Z,16.47
2022-12-31T21:27:42.523Z,16.41
2022-12-31T21:30:20.805Z,16.47
2022-12-31T21:32:50.161Z,16.48
2022-12-31T21:38:08.774Z,16.39
2022-12-31T21:40:36.456Z,16.54
2022-12-31T21:43:04.499Z,16.57
2022-12-31T21:45:32.454Z,16.63
2022-12-31T21:48:20.031Z,16.64
2022-12-31T21:50:48.782Z,16.68
2022-12-31T21:53:23.526Z,16.67
2022-12-31T21:56:11.849Z,16.72
2022-12-31T21:58:41.602Z,16.67
2022-12-31T22:01:33.376Z,16.69
2022-12-31T22:04:02.709Z,16.71
2022-12-31T22:06:30.665Z,16.74
2022-12-31T22:08:58.884Z,16.76
2022-12-31T22:11:28.219Z,16.83
2022-12-31T22:13:56.252Z,16.82
2022-12-31T22:16:24.405Z,16.77
2022-12-31T22:18:52.207Z,16.81
2022-12-31T22:21:22.633Z,16.82
2022-12-31T22:23:52.399Z,16.87
2022-12-31T22:26:22.377Z,16.85
2022-12-31T22:28:50.287Z,16.78
2022-12-31T22:31:19.773Z,16.83
2022-12-31T22:33:48.316Z,16.83
2022-12-31T22:36:19.472Z,16.86
2022-12-31T22:38:49.431Z,16.91
2022-12-31T22:41:18.818Z,16.93
2022-12-31T22:43:49.013Z,16.88
2022-12-31T22:46:19.530Z,16.91
2022-12-31T22:48:47.661Z,16.85
2022-12-31T22:51:16.677Z,16.84
2022-12-31T22:53:44.779Z,16.81
2022-12-31T22:56:16.081Z,16.80
2022-12-31T22:58:44.265Z,16.81
2022-12-31T23:01:18.104Z,16.83
2022-12-31T23:03:46.624Z,16.83
2022-12-31T23:06:14.501Z,16.86
2022-12-31T23:09:02.295Z,16.92
2022-12-31T23:11:30.683Z,16.94
2022-12-31T23:14:17.683Z,16.95
2022-12-31T23:17:29.178Z,17.00
2022-12-31T23:20:08.287Z,16.94
2022-12-31T23:22:53.522Z,16.94
2022-12-31T23:25:21.232Z,16.94
2022-12-31T23:27:50.391Z,16.88
2022-12-31T23:30:18.170Z,16.92
2022-12-31T23:32:45.888Z,16.89
2022-12-31T23:35:16.807Z,16.93
2022-12-31T23:37:44.582Z,16.91
2022-12-31T23:40:20.690Z,16.94
2022-12-31T23:42:50.898Z,16.95
2022-12-31T23:45:18.777Z,16.90
2022-12-31T23:47:46.555Z,16.88
2022-12-31T23:50:14.368Z,16.93
2022-12-31T23:52:42.161Z,17.05
2022-12-31T23:55:10.224Z,17.07
2022-12-31T23:57:37.990Z,17.00
